createdAt,value
2018-07-31T00:00:19.166Z,56.10
2018-07-31T00:01:19.149Z,55.13
2018-07-31T00:02:19.147Z,54.93
2018-07-31T00:03:19.154Z,55.61
2018-07-31T00:04:19.134Z,55.41
2018-07-31T00:05:19.119Z,55.32
2018-07-31T00:06:19.118Z,54.64
2018-07-31T00:07:19.111Z,54.64
2018-07-31T00:08:19.099Z,55.51
2018-07-31T00:09:19.093Z,55.41
2018-07-31T00:10:19.086Z,55.22
2018-07-31T00:11:19.080Z,55.39
2018-07-31T00:12:19.081Z,55.58
2018-07-31T00:13:19.067Z,55.88
2018-07-31T00:14:19.053Z,55.78
2018-07-31T00:15:19.048Z,56.16
2018-07-31T00:16:19.040Z,56.36
2018-07-31T00:17:19.037Z,56.36
2018-07-31T00:18:19.024Z,56.56
2018-07-31T00:19:19.017Z,56.46
2018-07-31T00:20:19.008Z,56.75
2018-07-31T00:21:19.001Z,56.75
2018-07-31T00:22:18.999Z,56.46
2018-07-31T00:23:18.989Z,57.33
2018-07-31T00:24:18.983Z,57.33
2018-07-31T00:25:18.971Z,57.33
2018-07-31T00:26:18.980Z,57.14
2018-07-31T00:27:18.961Z,57.23
2018-07-31T00:28:18.951Z,57.14
2018-07-31T00:29:18.941Z,57.72
2018-07-31T00:30:18.935Z,58.01
2018-07-31T00:31:18.928Z,57.82
2018-07-31T00:32:18.921Z,58.21
2018-07-31T00:33:18.911Z,58.98
2018-07-31T00:34:18.902Z,59.18
2018-07-31T00:35:18.896Z,59.08
2018-07-31T00:36:18.889Z,59.64
2018-07-31T00:37:18.879Z,59.92
2018-07-31T00:38:18.873Z,60.35
2018-07-31T00:39:18.867Z,60.44
2018-07-31T00:40:18.858Z,60.25
2018-07-31T00:41:18.849Z,59.95
2018-07-31T00:42:18.844Z,61.00
2018-07-31T00:43:18.851Z,61.00
2018-07-31T00:44:18.825Z,61.19
2018-07-31T00:45:18.819Z,61.38
2018-07-31T00:46:18.813Z,61.68
2018-07-31T00:47:18.804Z,61.68
2018-07-31T00:48:18.797Z,62.55
2018-07-31T00:49:18.789Z,62.45
2018-07-31T00:50:18.781Z,62.45
2018-07-31T00:51:18.772Z,62.65
2018-07-31T00:52:18.767Z,63.10
2018-07-31T00:53:18.758Z,63.52
2018-07-31T00:54:18.749Z,63.62
2018-07-31T00:55:18.747Z,63.62
2018-07-31T00:56:18.739Z,63.23
2018-07-31T00:57:18.729Z,64.11
2018-07-31T00:58:18.715Z,63.62
2018-07-31T00:59:18.711Z,64.11
2018-07-31T01:00:18.702Z,63.81
2018-07-31T01:01:18.699Z,64.01
2018-07-31T01:02:18.687Z,64.95
2018-07-31T01:03:18.688Z,64.56
2018-07-31T01:04:18.671Z,65.92
2018-07-31T01:05:18.662Z,65.14
2018-07-31T01:06:18.652Z,65.63
2018-07-31T01:07:18.644Z,65.33
2018-07-31T01:08:18.638Z,65.92
2018-07-31T01:09:18.627Z,65.43
2018-07-31T01:10:18.635Z,65.43
2018-07-31T01:11:18.613Z,64.85
2018-07-31T01:12:18.613Z,65.53
2018-07-31T01:13:18.596Z,66.50
2018-07-31T01:14:18.590Z,66.21
2018-07-31T01:15:18.581Z,66.99
2018-07-31T01:16:18.573Z,67.96
2018-07-31T01:17:18.567Z,68.15
2018-07-31T01:18:18.565Z,67.83
2018-07-31T01:19:18.552Z,68.51
2018-07-31T01:20:18.548Z,67.92
2018-07-31T01:21:18.530Z,67.96
2018-07-31T01:22:18.532Z,68.44
2018-07-31T01:23:18.516Z,68.73
2018-07-31T01:24:18.509Z,68.93
2018-07-31T01:25:18.499Z,68.63
2018-07-31T01:26:18.497Z,68.54
2018-07-31T01:27:18.493Z,68.25
2018-07-31T01:28:18.532Z,69.09
2018-07-31T01:29:18.479Z,68.79
2018-07-31T01:30:18.464Z,69.48
2018-07-31T01:31:18.451Z,69.48
2018-07-31T01:32:18.505Z,69.57
2018-07-31T01:33:18.434Z,70.15
2018-07-31T01:34:18.466Z,70.64
2018-07-31T01:35:18.417Z,70.83
2018-07-31T01:36:18.415Z,71.22
2018-07-31T01:37:18.408Z,71.90
2018-07-31T01:38:18.394Z,71.96
2018-07-31T01:39:18.388Z,71.77
2018-07-31T01:40:18.378Z,71.77
2018-07-31T01:41:18.369Z,72.09
2018-07-31T01:42:18.361Z,72.19
2018-07-31T01:43:18.356Z,72.29
2018-07-31T01:44:18.345Z,73.22
2018-07-31T01:45:18.341Z,72.93
2018-07-31T01:46:18.328Z,73.52
2018-07-31T01:47:18.319Z,73.80
2018-07-31T01:48:18.316Z,74.00
2018-07-31T01:49:18.308Z,75.26
2018-07-31T01:50:18.298Z,74.77
2018-07-31T01:51:18.286Z,75.65
2018-07-31T01:52:18.286Z,75.65
2018-07-31T01:53:18.269Z,76.62
2018-07-31T01:54:18.262Z,76.58
2018-07-31T01:55:18.255Z,77.49
2018-07-31T01:56:18.246Z,76.42
2018-07-31T01:57:18.237Z,77.29
2018-07-31T01:58:18.228Z,77.69
2018-07-31T01:59:18.220Z,76.52
2018-07-31T02:00:18.212Z,77.20
2018-07-31T02:01:18.211Z,77.69
2018-07-31T02:02:18.197Z,77.49
2018-07-31T02:03:18.186Z,77.98
2018-07-31T02:04:18.177Z,77.20
2018-07-31T02:05:18.253Z,77.69
2018-07-31T02:06:18.194Z,76.62
2018-07-31T02:07:18.177Z,77.49
2018-07-31T02:08:18.145Z,77.34
2018-07-31T02:09:18.160Z,77.72
2018-07-31T02:10:18.126Z,76.85
2018-07-31T02:11:18.283Z,78.27
2018-07-31T02:12:18.116Z,77.69
2018-07-31T02:13:18.201Z,78.46
2018-07-31T02:14:18.097Z,78.17
2018-07-31T02:15:18.086Z,78.46
2018-07-31T02:16:18.078Z,78.36
2018-07-31T02:17:18.125Z,78.94
2018-07-31T02:18:18.064Z,79.33
2018-07-31T02:19:18.055Z,79.24
2018-07-31T02:20:18.048Z,79.82
2018-07-31T02:21:18.039Z,79.82
2018-07-31T02:22:18.029Z,79.14
2018-07-31T02:23:18.019Z,80.01
2018-07-31T02:24:18.027Z,80.40
2018-07-31T02:25:18.003Z,79.91
2018-07-31T02:26:17.993Z,80.79
2018-07-31T02:27:17.989Z,80.94
2018-07-31T02:28:18.164Z,80.50
2018-07-31T02:29:17.968Z,81.62
2018-07-31T02:30:17.960Z,81.76
2018-07-31T02:31:17.955Z,82.40
2018-07-31T02:32:17.949Z,82.59
2018-07-31T02:33:17.933Z,82.10
2018-07-31T02:34:17.925Z,82.10
2018-07-31T02:35:17.918Z,82.88
2018-07-31T02:36:17.910Z,83.56
2018-07-31T02:37:17.902Z,83.81
2018-07-31T02:38:17.891Z,84.88
2018-07-31T02:39:17.888Z,84.68
2018-07-31T02:40:17.875Z,84.82
2018-07-31T02:41:17.869Z,84.78
2018-07-31T02:42:17.856Z,84.78
2018-07-31T02:43:17.849Z,84.97
2018-07-31T02:44:17.843Z,84.43
2018-07-31T02:45:17.847Z,84.78
2018-07-31T02:46:17.822Z,84.78
2018-07-31T02:47:17.813Z,84.88
2018-07-31T02:48:17.805Z,85.27
2018-07-31T02:49:17.799Z,85.11
2018-07-31T02:50:17.788Z,85.65
2018-07-31T02:51:17.780Z,84.49
2018-07-31T02:52:17.772Z,85.46
2018-07-31T02:53:17.770Z,85.30
2018-07-31T02:54:17.756Z,84.82
2018-07-31T02:55:17.743Z,85.02
2018-07-31T02:56:17.741Z,85.69
2018-07-31T02:57:17.726Z,85.30
2018-07-31T02:58:17.751Z,85.30
2018-07-31T02:59:17.712Z,85.65
2018-07-31T03:00:17.702Z,85.65
2018-07-31T03:01:17.699Z,85.55
2018-07-31T03:02:17.683Z,85.85
2018-07-31T03:03:17.680Z,85.99
2018-07-31T03:04:17.671Z,85.89
2018-07-31T03:05:17.653Z,85.69
2018-07-31T03:06:17.658Z,86.27
2018-07-31T03:07:17.639Z,86.33
2018-07-31T03:08:17.719Z,86.37
2018-07-31T03:09:17.625Z,86.95
2018-07-31T03:10:17.616Z,87.30
2018-07-31T03:11:17.607Z,87.40
2018-07-31T03:12:17.607Z,86.62
2018-07-31T03:13:17.587Z,87.49
2018-07-31T03:14:17.582Z,87.88
2018-07-31T03:15:17.571Z,88.37
2018-07-31T03:16:17.559Z,88.85
2018-07-31T03:17:17.553Z,89.04
2018-07-31T03:18:17.543Z,88.46
2018-07-31T03:19:17.543Z,88.56
2018-07-31T03:20:17.529Z,88.07
2018-07-31T03:21:17.515Z,89.00
2018-07-31T03:22:17.512Z,88.85
2018-07-31T03:23:17.500Z,89.58
2018-07-31T03:24:17.493Z,89.68
2018-07-31T03:25:17.482Z,89.48
2018-07-31T03:26:17.473Z,89.68
2018-07-31T03:27:17.467Z,89.04
2018-07-31T03:28:17.468Z,89.48
2018-07-31T03:29:17.449Z,89.68
2018-07-31T03:30:17.440Z,90.55
2018-07-31T03:31:17.438Z,90.36
2018-07-31T03:32:17.422Z,90.64
2018-07-31T03:33:17.411Z,90.64
2018-07-31T03:34:17.400Z,90.26
2018-07-31T03:35:17.392Z,90.64
2018-07-31T03:36:17.387Z,91.03
2018-07-31T03:37:17.543Z,90.45
2018-07-31T03:38:17.369Z,90.94
2018-07-31T03:39:17.398Z,90.84
2018-07-31T03:40:17.357Z,91.03
2018-07-31T03:41:17.420Z,90.74
2018-07-31T03:42:17.338Z,90.45
2018-07-31T03:43:17.327Z,90.94
2018-07-31T03:44:17.315Z,90.84
2018-07-31T03:45:17.413Z,91.32
2018-07-31T03:46:17.297Z,91.03
2018-07-31T03:47:17.370Z,91.66
2018-07-31T03:48:17.278Z,92.63
2018-07-31T03:49:17.388Z,92.54
2018-07-31T03:50:17.258Z,92.05
2018-07-31T03:51:17.354Z,92.73
2018-07-31T03:52:17.241Z,92.05
2018-07-31T03:53:17.228Z,91.71
2018-07-31T03:54:17.221Z,91.52
2018-07-31T03:55:17.213Z,91.52
2018-07-31T03:56:17.216Z,92.00
2018-07-31T03:57:17.223Z,91.13
2018-07-31T03:58:17.184Z,91.32
2018-07-31T03:59:17.185Z,91.42
2018-07-31T04:00:17.165Z,91.61
2018-07-31T04:01:17.165Z,91.61
2018-07-31T04:02:17.148Z,91.56
2018-07-31T04:03:17.142Z,91.96
2018-07-31T04:04:17.133Z,91.86
2018-07-31T04:05:17.127Z,92.15
2018-07-31T04:06:17.118Z,92.15
2018-07-31T04:07:17.147Z,91.56
2018-07-31T04:08:17.095Z,92.05
2018-07-31T04:09:17.086Z,91.52
2018-07-31T04:10:17.077Z,91.42
2018-07-31T04:11:17.067Z,91.03
2018-07-31T04:12:17.067Z,91.32
2018-07-31T04:13:17.048Z,91.90
2018-07-31T04:14:17.043Z,91.86
2018-07-31T04:15:17.033Z,91.81
2018-07-31T04:16:17.027Z,91.61
2018-07-31T04:17:17.076Z,91.61
2018-07-31T04:18:17.011Z,91.71
2018-07-31T04:19:16.996Z,91.61
2018-07-31T04:20:16.987Z,92.00
2018-07-31T04:21:16.975Z,91.61
2018-07-31T04:22:16.973Z,91.81
2018-07-31T04:23:16.956Z,91.90
2018-07-31T04:24:16.959Z,91.32
2018-07-31T04:25:16.950Z,91.13
2018-07-31T04:26:17.017Z,91.03
2018-07-31T04:27:16.923Z,91.03
2018-07-31T04:28:16.911Z,91.13
2018-07-31T04:29:16.910Z,91.32
2018-07-31T04:30:16.899Z,91.03
2018-07-31T04:31:16.888Z,91.32
2018-07-31T04:32:16.873Z,91.22
2018-07-31T04:33:16.868Z,92.10
2018-07-31T04:34:16.857Z,91.56
2018-07-31T04:35:16.858Z,91.38
2018-07-31T04:36:16.871Z,92.15
2018-07-31T04:37:16.834Z,92.05
2018-07-31T04:38:16.820Z,92.05
2018-07-31T04:39:16.810Z,91.38
2018-07-31T04:40:16.815Z,91.90
2018-07-31T04:41:16.822Z,91.22
2018-07-31T04:42:16.802Z,91.13
2018-07-31T04:43:16.775Z,90.94
2018-07-31T04:44:16.766Z,91.13
2018-07-31T04:45:16.756Z,91.03
2018-07-31T04:46:16.747Z,91.13
2018-07-31T04:47:16.747Z,91.13
2018-07-31T04:48:16.734Z,91.03
2018-07-31T04:49:16.720Z,91.08
2018-07-31T04:50:16.745Z,91.86
2018-07-31T04:51:16.705Z,91.38
2018-07-31T04:52:16.699Z,91.66
2018-07-31T04:53:16.691Z,92.24
2018-07-31T04:54:16.679Z,92.54
2018-07-31T04:55:16.666Z,92.05
2018-07-31T04:56:16.656Z,92.34
2018-07-31T04:57:16.646Z,91.66
2018-07-31T04:58:16.639Z,92.15
2018-07-31T04:59:16.636Z,91.96
2018-07-31T05:00:16.623Z,92.15
2018-07-31T05:01:16.611Z,91.86
2018-07-31T05:02:16.599Z,91.66
2018-07-31T05:03:16.595Z,91.66
2018-07-31T05:04:16.612Z,91.90
2018-07-31T05:05:16.577Z,91.71
2018-07-31T05:06:16.572Z,91.90
2018-07-31T05:07:16.558Z,91.76
2018-07-31T05:08:16.548Z,91.76
2018-07-31T05:09:16.546Z,92.00
2018-07-31T05:10:16.528Z,91.08
2018-07-31T05:11:16.522Z,91.13
2018-07-31T05:12:16.510Z,91.22
2018-07-31T05:13:16.509Z,90.94
2018-07-31T05:14:16.490Z,90.45
2018-07-31T05:15:16.485Z,90.84
2018-07-31T05:16:16.475Z,90.64
2018-07-31T05:17:16.467Z,90.64
2018-07-31T05:18:16.471Z,90.55
2018-07-31T05:19:16.448Z,90.26
2018-07-31T05:20:16.462Z,90.36
2018-07-31T05:21:16.433Z,90.64
2018-07-31T05:22:16.418Z,89.77
2018-07-31T05:23:16.459Z,89.77
2018-07-31T05:24:16.416Z,89.68
2018-07-31T05:25:16.515Z,89.87
2018-07-31T05:26:16.384Z,89.77
2018-07-31T05:27:16.426Z,89.82
2018-07-31T05:28:16.370Z,89.82
2018-07-31T05:29:16.408Z,90.01
2018-07-31T05:30:16.347Z,89.72
2018-07-31T05:31:16.343Z,89.43
2018-07-31T05:32:16.335Z,89.14
2018-07-31T05:33:16.337Z,89.04
2018-07-31T05:34:16.310Z,89.23
2018-07-31T05:35:16.304Z,88.27
2018-07-31T05:36:16.304Z,88.37
2018-07-31T05:37:16.283Z,89.04
2018-07-31T05:38:16.278Z,89.29
2018-07-31T05:39:16.271Z,89.09
2018-07-31T05:40:16.263Z,89.77
2018-07-31T05:41:16.256Z,90.20
2018-07-31T05:42:16.240Z,89.33
2018-07-31T05:43:16.238Z,89.53
2018-07-31T05:44:16.224Z,89.23
2018-07-31T05:45:16.217Z,88.75
2018-07-31T05:46:16.230Z,88.56
2018-07-31T05:47:16.200Z,88.46
2018-07-31T05:48:16.190Z,88.21
2018-07-31T05:49:16.190Z,87.88
2018-07-31T05:50:16.178Z,87.98
2018-07-31T05:51:16.164Z,88.12
2018-07-31T05:52:16.165Z,87.54
2018-07-31T05:53:16.144Z,87.78
2018-07-31T05:54:16.137Z,87.98
2018-07-31T05:55:16.129Z,87.92
2018-07-31T05:56:16.119Z,87.49
2018-07-31T05:57:16.111Z,88.21
2018-07-31T05:58:16.104Z,87.98
2018-07-31T05:59:16.093Z,87.88
2018-07-31T06:00:16.092Z,87.82
2018-07-31T06:01:16.077Z,87.49
2018-07-31T06:02:16.082Z,87.92
2018-07-31T06:03:16.059Z,88.02
2018-07-31T06:04:16.060Z,87.73
2018-07-31T06:05:16.053Z,88.02
2018-07-31T06:06:16.098Z,87.92
2018-07-31T06:07:16.026Z,87.63
2018-07-31T06:08:16.109Z,87.44
2018-07-31T06:09:16.020Z,87.44
2018-07-31T06:10:15.999Z,86.76
2018-07-31T06:11:16.055Z,87.05
2018-07-31T06:12:16.022Z,86.66
2018-07-31T06:13:15.975Z,86.27
2018-07-31T06:14:16.065Z,86.27
2018-07-31T06:15:16.000Z,86.47
2018-07-31T06:16:15.951Z,86.27
2018-07-31T06:17:15.942Z,86.37
2018-07-31T06:18:15.928Z,86.57
2018-07-31T06:19:15.928Z,86.90
2018-07-31T06:20:15.916Z,86.99
2018-07-31T06:21:15.907Z,86.80
2018-07-31T06:22:15.897Z,86.02
2018-07-31T06:23:15.886Z,85.64
2018-07-31T06:24:15.888Z,86.22
2018-07-31T06:25:15.871Z,85.44
2018-07-31T06:26:15.863Z,85.35
2018-07-31T06:27:15.856Z,85.06
2018-07-31T06:28:15.847Z,84.86
2018-07-31T06:29:15.835Z,85.06
2018-07-31T06:30:15.827Z,85.29
2018-07-31T06:31:15.827Z,84.71
2018-07-31T06:32:15.812Z,84.22
2018-07-31T06:33:15.809Z,84.52
2018-07-31T06:34:15.805Z,83.64
2018-07-31T06:35:15.794Z,83.49
2018-07-31T06:36:15.787Z,83.15
2018-07-31T06:37:15.777Z,84.27
2018-07-31T06:38:15.767Z,83.29
2018-07-31T06:39:15.756Z,83.88
2018-07-31T06:40:15.747Z,84.36
2018-07-31T06:41:15.742Z,83.00
2018-07-31T06:42:15.737Z,82.90
2018-07-31T06:43:15.725Z,83.39
2018-07-31T06:44:15.715Z,83.00
2018-07-31T06:45:15.710Z,83.10
2018-07-31T06:46:15.698Z,82.52
2018-07-31T06:47:15.690Z,82.90
2018-07-31T06:48:15.686Z,82.42
2018-07-31T06:49:15.726Z,82.42
2018-07-31T06:50:15.667Z,82.32
2018-07-31T06:51:15.673Z,82.52
2018-07-31T06:52:15.655Z,81.93
2018-07-31T06:53:15.650Z,80.96
2018-07-31T06:54:15.636Z,82.32
2018-07-31T06:55:15.630Z,82.27
2018-07-31T06:56:15.621Z,81.98
2018-07-31T06:57:15.618Z,81.10
2018-07-31T06:58:15.609Z,81.01
2018-07-31T06:59:15.597Z,79.74
2018-07-31T07:00:15.595Z,80.94
2018-07-31T07:01:15.585Z,80.36
2018-07-31T07:02:15.578Z,80.36
2018-07-31T07:03:15.585Z,79.78
2018-07-31T07:04:15.578Z,78.91
2018-07-31T07:05:15.554Z,79.30
2018-07-31T07:06:15.544Z,79.59
2018-07-31T07:07:15.569Z,78.91
2018-07-31T07:08:15.551Z,79.39
2018-07-31T07:09:15.567Z,79.49
2018-07-31T07:10:15.518Z,81.24
2018-07-31T07:11:15.509Z,79.00
2018-07-31T07:12:15.496Z,78.33
2018-07-31T07:13:15.493Z,78.13
2018-07-31T07:14:15.486Z,79.20
2018-07-31T07:15:15.480Z,79.04
2018-07-31T07:16:15.471Z,78.85
2018-07-31T07:17:15.462Z,80.69
2018-07-31T07:18:15.461Z,82.06
2018-07-31T07:19:15.448Z,79.33
2018-07-31T07:20:15.461Z,78.11
2018-07-31T07:21:15.428Z,78.40
2018-07-31T07:22:15.423Z,77.43
2018-07-31T07:23:15.435Z,76.35
2018-07-31T07:24:15.413Z,74.51
2018-07-31T07:25:15.406Z,78.25
2018-07-31T07:26:15.409Z,78.15
2018-07-31T07:27:15.400Z,75.52
2018-07-31T07:28:15.390Z,75.81
2018-07-31T07:29:15.376Z,75.52
2018-07-31T07:30:15.368Z,73.28
2018-07-31T07:31:15.367Z,72.70
2018-07-31T07:32:15.357Z,74.02
2018-07-31T07:33:15.345Z,74.02
2018-07-31T07:34:15.490Z,73.54
2018-07-31T07:35:15.337Z,73.83
2018-07-31T07:36:15.478Z,75.09
2018-07-31T07:37:15.328Z,73.93
2018-07-31T07:38:15.321Z,73.83
2018-07-31T07:39:15.310Z,74.41
2018-07-31T07:40:15.316Z,76.45
2018-07-31T07:41:15.296Z,76.07
2018-07-31T07:42:15.287Z,73.24
2018-07-31T07:43:15.278Z,74.32
2018-07-31T07:44:15.271Z,74.32
2018-07-31T07:45:15.275Z,74.48
2018-07-31T07:46:15.262Z,73.83
2018-07-31T07:47:15.260Z,77.04
2018-07-31T07:48:15.241Z,76.26
2018-07-31T07:49:15.234Z,74.93
2018-07-31T07:50:15.227Z,74.06
2018-07-31T07:51:15.228Z,72.05
2018-07-31T07:52:15.218Z,72.44
2018-07-31T07:53:15.209Z,72.92
2018-07-31T07:54:15.224Z,69.81
2018-07-31T07:55:15.195Z,69.71
2018-07-31T07:56:15.196Z,71.99
2018-07-31T07:57:15.190Z,71.17
2018-07-31T07:58:15.187Z,70.92
2018-07-31T07:59:15.166Z,70.40
2018-07-31T08:00:15.165Z,71.47
2018-07-31T08:01:15.156Z,72.34
2018-07-31T08:02:15.157Z,71.08
2018-07-31T08:03:15.145Z,70.98
2018-07-31T08:04:15.172Z,70.98
2018-07-31T08:05:15.235Z,69.94
2018-07-31T08:06:15.125Z,70.33
2018-07-31T08:07:15.253Z,69.94
2018-07-31T08:08:15.112Z,69.26
2018-07-31T08:09:15.128Z,70.04
2018-07-31T08:10:15.101Z,68.38
2018-07-31T08:11:15.107Z,66.73
2018-07-31T08:12:15.095Z,67.05
2018-07-31T08:13:15.110Z,69.00
2018-07-31T08:14:15.071Z,68.13
2018-07-31T08:15:15.150Z,68.03
2018-07-31T08:16:15.064Z,68.13
2018-07-31T08:17:15.152Z,66.56
2018-07-31T08:18:15.056Z,66.14
2018-07-31T08:19:15.042Z,67.15
2018-07-31T08:20:15.042Z,69.00
2018-07-31T08:21:15.032Z,66.56
2018-07-31T08:22:15.023Z,66.86
2018-07-31T08:23:15.024Z,67.74
2018-07-31T08:24:15.012Z,66.86
2018-07-31T08:25:15.011Z,65.78
2018-07-31T08:26:15.006Z,65.50
2018-07-31T08:27:14.992Z,65.98
2018-07-31T08:28:14.991Z,65.98
2018-07-31T08:29:14.986Z,65.78
2018-07-31T08:30:14.984Z,64.81
2018-07-31T08:31:14.974Z,64.81
2018-07-31T08:32:14.961Z,67.74
2018-07-31T08:33:14.957Z,65.69
2018-07-31T08:34:14.956Z,65.17
2018-07-31T08:35:14.946Z,64.97
2018-07-31T08:36:14.942Z,65.17
2018-07-31T08:37:14.933Z,65.17
2018-07-31T08:38:14.926Z,65.01
2018-07-31T08:39:14.922Z,65.20
2018-07-31T08:40:14.917Z,64.62
2018-07-31T08:41:14.936Z,64.55
2018-07-31T08:42:14.970Z,64.36
2018-07-31T08:43:14.898Z,65.14
2018-07-31T08:44:14.891Z,63.80
2018-07-31T08:45:14.885Z,63.41
2018-07-31T08:46:14.891Z,63.90
2018-07-31T08:47:14.874Z,64.12
2018-07-31T08:48:14.870Z,61.95
2018-07-31T08:49:14.867Z,62.73
2018-07-31T08:50:14.864Z,63.21
2018-07-31T08:51:14.968Z,63.12
2018-07-31T08:52:14.847Z,63.51
2018-07-31T08:53:14.842Z,62.27
2018-07-31T08:54:14.833Z,61.10
2018-07-31T08:55:14.829Z,61.00
2018-07-31T08:56:14.825Z,60.61
2018-07-31T08:57:14.818Z,60.52
2018-07-31T08:58:14.823Z,60.91
2018-07-31T08:59:14.809Z,59.67
2018-07-31T09:00:14.812Z,59.96
2018-07-31T09:01:14.804Z,61.82
2018-07-31T09:02:14.793Z,59.34
2018-07-31T09:03:14.784Z,60.94
2018-07-31T09:04:14.794Z,60.74
2018-07-31T09:05:14.778Z,61.04
2018-07-31T09:06:14.776Z,59.99
2018-07-31T09:07:14.767Z,59.20
2018-07-31T09:08:14.827Z,59.69
2018-07-31T09:09:14.755Z,59.82
2018-07-31T09:10:14.763Z,59.53
2018-07-31T09:11:14.743Z,59.82
2018-07-31T09:12:14.744Z,57.57
2018-07-31T09:13:14.732Z,57.74
2018-07-31T09:14:14.729Z,58.42
2018-07-31T09:15:14.730Z,57.64
2018-07-31T09:16:14.720Z,57.74
2018-07-31T09:17:14.720Z,57.62
2018-07-31T09:18:14.709Z,58.62
2018-07-31T09:19:14.709Z,58.30
2018-07-31T09:20:14.703Z,57.74
2018-07-31T09:21:14.707Z,57.42
2018-07-31T09:22:14.728Z,58.30
2018-07-31T09:23:14.689Z,58.69
2018-07-31T09:24:14.685Z,58.79
2018-07-31T09:25:14.682Z,57.71
2018-07-31T09:26:14.672Z,57.71
2018-07-31T09:27:14.675Z,56.84
2018-07-31T09:28:14.663Z,56.76
2018-07-31T09:29:14.665Z,56.57
2018-07-31T09:30:14.655Z,57.06
2018-07-31T09:31:14.648Z,56.76
2018-07-31T09:32:14.648Z,56.37
2018-07-31T09:33:14.641Z,56.86
2018-07-31T09:34:14.634Z,56.67
2018-07-31T09:35:14.626Z,55.81
2018-07-31T09:36:14.623Z,55.62
2018-07-31T09:37:14.621Z,55.52
2018-07-31T09:38:14.614Z,55.62
2018-07-31T09:39:14.610Z,55.32
2018-07-31T09:40:14.601Z,54.25
2018-07-31T09:41:14.600Z,53.17
2018-07-31T09:42:14.595Z,53.76
2018-07-31T09:43:14.596Z,53.76
2018-07-31T09:44:14.596Z,53.56
2018-07-31T09:45:14.586Z,53.49
2018-07-31T09:46:14.584Z,53.20
2018-07-31T09:47:14.590Z,53.69
2018-07-31T09:48:14.567Z,54.47
2018-07-31T09:49:14.611Z,53.66
2018-07-31T09:50:14.558Z,54.25
2018-07-31T09:51:14.557Z,54.15
2018-07-31T09:52:14.553Z,55.71
2018-07-31T09:53:14.552Z,54.83
2018-07-31T09:54:14.538Z,53.96
2018-07-31T09:55:14.539Z,54.35
2018-07-31T09:56:14.536Z,53.76
2018-07-31T09:57:14.579Z,53.37
2018-07-31T09:58:14.518Z,52.69
2018-07-31T09:59:14.602Z,52.10
2018-07-31T10:00:14.510Z,52.59
2018-07-31T10:01:14.518Z,52.49
2018-07-31T10:02:14.599Z,52.91
2018-07-31T10:03:14.498Z,51.64
2018-07-31T10:04:14.501Z,51.93
2018-07-31T10:05:14.542Z,52.22
2018-07-31T10:06:14.495Z,52.71
2018-07-31T10:07:14.480Z,52.22
2018-07-31T10:08:14.480Z,51.95
2018-07-31T10:09:14.476Z,51.00
2018-07-31T10:10:14.464Z,51.78
2018-07-31T10:11:14.468Z,49.68
2018-07-31T10:12:14.514Z,49.60
2018-07-31T10:13:14.452Z,48.72
2018-07-31T10:14:14.452Z,47.77
2018-07-31T10:15:14.448Z,46.71
2018-07-31T10:16:14.448Z,44.84
2018-07-31T10:17:14.435Z,45.43
2018-07-31T10:18:14.565Z,46.56
2018-07-31T10:19:14.434Z,46.95
2018-07-31T10:20:14.428Z,46.78
2018-07-31T10:21:14.419Z,46.59
2018-07-31T10:22:14.420Z,47.17
2018-07-31T10:23:14.418Z,46.27
2018-07-31T10:24:14.446Z,45.68
2018-07-31T10:25:14.411Z,45.29
2018-07-31T10:26:14.405Z,45.19
2018-07-31T10:27:14.553Z,45.39
2018-07-31T10:28:14.398Z,46.34
2018-07-31T10:29:14.453Z,46.25
2018-07-31T10:30:14.389Z,46.27
2018-07-31T10:31:14.397Z,46.37
2018-07-31T10:32:14.391Z,46.47
2018-07-31T10:33:14.432Z,46.47
2018-07-31T10:34:14.374Z,45.41
2018-07-31T10:35:14.380Z,44.57
2018-07-31T10:36:14.368Z,43.73
2018-07-31T10:37:14.366Z,43.36
2018-07-31T10:38:14.367Z,42.47
2018-07-31T10:39:14.362Z,41.98
2018-07-31T10:40:14.354Z,42.57
2018-07-31T10:41:14.350Z,42.67
2018-07-31T10:42:14.348Z,41.78
2018-07-31T10:43:14.350Z,41.74
2018-07-31T10:44:14.340Z,42.33
2018-07-31T10:45:14.338Z,42.63
2018-07-31T10:46:14.338Z,43.33
2018-07-31T10:47:14.331Z,42.41
2018-07-31T10:48:14.332Z,43.18
2018-07-31T10:49:14.326Z,44.16
2018-07-31T10:50:14.327Z,44.33
2018-07-31T10:51:14.319Z,45.12
2018-07-31T10:52:14.323Z,44.23
2018-07-31T10:53:14.322Z,44.70
2018-07-31T10:54:14.321Z,45.07
2018-07-31T10:55:14.311Z,45.17
2018-07-31T10:56:14.415Z,45.34
2018-07-31T10:57:14.304Z,45.62
2018-07-31T10:58:14.610Z,46.30
2018-07-31T10:59:14.296Z,46.69
2018-07-31T11:00:14.455Z,46.40
2018-07-31T11:01:14.288Z,46.69
2018-07-31T11:02:14.337Z,47.38
2018-07-31T11:03:14.413Z,46.89
2018-07-31T11:04:14.326Z,46.59
2018-07-31T11:05:14.276Z,46.79
2018-07-31T11:06:14.277Z,46.79
2018-07-31T11:07:14.267Z,46.72
2018-07-31T11:08:14.272Z,46.33
2018-07-31T11:09:14.257Z,46.69
2018-07-31T11:10:14.262Z,46.98
2018-07-31T11:11:14.256Z,46.69
2018-07-31T11:12:14.254Z,46.59
2018-07-31T11:13:14.251Z,46.40
2018-07-31T11:14:14.239Z,46.59
2018-07-31T11:15:14.234Z,46.98
2018-07-31T11:16:14.228Z,47.28
2018-07-31T11:17:14.228Z,47.18
2018-07-31T11:18:14.222Z,47.57
2018-07-31T11:19:14.224Z,47.57
2018-07-31T11:20:14.214Z,48.07
2018-07-31T11:21:14.253Z,47.94
2018-07-31T11:22:14.205Z,47.77
2018-07-31T11:23:14.221Z,47.77
2018-07-31T11:24:14.201Z,47.40
2018-07-31T11:25:14.196Z,47.30
2018-07-31T11:26:14.195Z,47.01
2018-07-31T11:27:14.190Z,46.91
2018-07-31T11:28:14.180Z,47.50
2018-07-31T11:29:14.180Z,47.30
2018-07-31T11:30:14.181Z,47.40
2018-07-31T11:31:14.173Z,47.60
2018-07-31T11:32:14.170Z,47.57
2018-07-31T11:33:14.167Z,47.87
2018-07-31T11:34:14.171Z,47.79
2018-07-31T11:35:14.158Z,47.50
2018-07-31T11:36:14.152Z,47.42
2018-07-31T11:37:14.149Z,47.52
2018-07-31T11:38:14.150Z,46.84
2018-07-31T11:39:14.148Z,46.56
2018-07-31T11:40:14.140Z,46.27
2018-07-31T11:41:14.129Z,46.49
2018-07-31T11:42:14.129Z,47.39
2018-07-31T11:43:14.123Z,45.55
2018-07-31T11:44:14.122Z,44.57
2018-07-31T11:45:14.119Z,43.88
2018-07-31T11:46:14.116Z,44.30
2018-07-31T11:47:14.116Z,44.20
2018-07-31T11:48:14.110Z,43.51
2018-07-31T11:49:14.125Z,40.96
2018-07-31T11:50:14.199Z,40.08
2018-07-31T11:51:14.096Z,40.17
2018-07-31T11:52:14.097Z,40.27
2018-07-31T11:53:14.094Z,41.33
2018-07-31T11:54:14.097Z,41.43
2018-07-31T11:55:14.092Z,41.06
2018-07-31T11:56:14.086Z,40.76
2018-07-31T11:57:14.088Z,39.68
2018-07-31T11:58:14.085Z,39.78
2018-07-31T11:59:14.074Z,39.78
2018-07-31T12:00:14.079Z,39.98
2018-07-31T12:01:14.073Z,39.88
2018-07-31T12:02:14.070Z,38.60
2018-07-31T12:03:14.067Z,38.80
2018-07-31T12:04:14.092Z,37.82
2018-07-31T12:05:14.062Z,37.82
2018-07-31T12:06:14.058Z,38.31
2018-07-31T12:07:14.061Z,38.31
2018-07-31T12:08:14.058Z,37.15
2018-07-31T12:09:14.052Z,38.03
2018-07-31T12:10:14.048Z,37.24
2018-07-31T12:11:14.045Z,37.54
2018-07-31T12:12:14.045Z,37.34
2018-07-31T12:13:14.043Z,37.84
2018-07-31T12:14:14.038Z,37.15
2018-07-31T12:15:14.037Z,37.92
2018-07-31T12:16:14.040Z,37.92
2018-07-31T12:17:14.037Z,37.42
2018-07-31T12:18:14.029Z,37.72
2018-07-31T12:19:14.045Z,38.11
2018-07-31T12:20:14.024Z,38.68
2018-07-31T12:21:14.021Z,38.80
2018-07-31T12:22:14.026Z,38.50
2018-07-31T12:23:14.016Z,38.52
2018-07-31T12:24:14.017Z,38.72
2018-07-31T12:25:14.016Z,38.03
2018-07-31T12:26:14.007Z,37.65
2018-07-31T12:27:14.011Z,38.54
2018-07-31T12:28:14.003Z,38.23
2018-07-31T12:29:14.000Z,38.60
2018-07-31T12:30:13.997Z,38.60
2018-07-31T12:31:13.998Z,39.39
2018-07-31T12:32:14.017Z,38.98
2018-07-31T12:33:14.130Z,39.25
2018-07-31T12:34:13.987Z,40.03
2018-07-31T12:35:13.987Z,40.53
2018-07-31T12:36:14.006Z,40.63
2018-07-31T12:37:13.993Z,40.03
2018-07-31T12:38:13.999Z,39.66
2018-07-31T12:39:13.981Z,39.76
2018-07-31T12:40:14.044Z,39.48
2018-07-31T12:41:13.975Z,39.88
2018-07-31T12:42:13.968Z,39.48
2018-07-31T12:43:13.981Z,39.48
2018-07-31T12:44:13.960Z,40.08
2018-07-31T12:45:13.957Z,39.86
2018-07-31T12:46:13.960Z,40.74
2018-07-31T12:47:13.954Z,40.25
2018-07-31T12:48:13.953Z,40.74
2018-07-31T12:49:13.957Z,40.45
2018-07-31T12:50:13.949Z,40.47
2018-07-31T12:51:13.948Z,40.55
2018-07-31T12:52:13.962Z,41.03